Terminal Aerodrome Forecast
Issued by NWS

Home | Current Version | Previous Version | Text Only | Print | Product List | Glossary On
Versions: 1 2 3 4 5 6 7 8 9 10 11 12 13 14 15 16
273
FTUS45 KRIW 031120
TAFCPR
TAF
KCPR 031120Z 0312/0412 22020G30KT P6SM BKN110
     FM031700 22020G32KT P6SM SCT110
     FM040000 23012G18KT P6SM SCT100 SCT250=

USA.gov is the U.S. government's official web portal to all federal, state and local government web resources and services.